sensor_id;sensor_type;location;lat;lon;timestamp;P1;durP1;ratioP1;P2;durP2;ratioP2
11267;SDS011;49397;47.474;9.416;2023-04-30T00:01:52;6.97;;;6.27;;
11267;SDS011;49397;47.474;9.416;2023-04-30T00:04:17;7.67;;;6.23;;
11267;SDS011;49397;47.474;9.416;2023-04-30T00:06:42;9.90;;;6.90;;
11267;SDS011;49397;47.474;9.416;2023-04-30T00:09:08;7.50;;;6.70;;
11267;SDS011;49397;47.474;9.416;2023-04-30T00:11:33;13.10;;;7.70;;
11267;SDS011;49397;47.474;9.416;2023-04-30T00:13:58;9.40;;;6.97;;
11267;SDS011;49397;47.474;9.416;2023-04-30T00:16:24;7.47;;;6.33;;
11267;SDS011;49397;47.474;9.416;2023-04-30T00:18:49;8.50;;;7.13;;
11267;SDS011;49397;47.474;9.416;2023-04-30T00:21:15;8.93;;;6.10;;
11267;SDS011;49397;47.474;9.416;2023-04-30T00:23:40;7.00;;;6.00;;
11267;SDS011;49397;47.474;9.416;2023-04-30T00:26:06;11.63;;;7.37;;
11267;SDS011;49397;47.474;9.416;2023-04-30T00:28:31;7.73;;;6.27;;
11267;SDS011;49397;47.474;9.416;2023-04-30T00:30:56;7.80;;;6.80;;
11267;SDS011;49397;47.474;9.416;2023-04-30T00:33:22;7.50;;;6.60;;
11267;SDS011;49397;47.474;9.416;2023-04-30T00:35:47;8.53;;;6.27;;
11267;SDS011;49397;47.474;9.416;2023-04-30T00:38:12;8.10;;;6.70;;
11267;SDS011;49397;47.474;9.416;2023-04-30T00:40:38;6.83;;;6.10;;
11267;SDS011;49397;47.474;9.416;2023-04-30T00:43:04;7.47;;;6.67;;
11267;SDS011;49397;47.474;9.416;2023-04-30T00:45:30;7.20;;;6.23;;
11267;SDS011;49397;47.474;9.416;2023-04-30T00:47:55;8.20;;;6.40;;
11267;SDS011;49397;47.474;9.416;2023-04-30T00:50:21;7.80;;;6.63;;
11267;SDS011;49397;47.474;9.416;2023-04-30T00:52:47;8.07;;;6.43;;
11267;SDS011;49397;47.474;9.416;2023-04-30T00:55:12;6.87;;;6.17;;
11267;SDS011;49397;47.474;9.416;2023-04-30T00:57:38;7.77;;;6.27;;
11267;SDS011;49397;47.474;9.416;2023-04-30T01:00:04;7.20;;;6.30;;
11267;SDS011;49397;47.474;9.416;2023-04-30T01:02:33;8.30;;;6.57;;
11267;SDS011;49397;47.474;9.416;2023-04-30T01:04:59;7.10;;;6.40;;
11267;SDS011;49397;47.474;9.416;2023-04-30T01:07:25;7.60;;;5.87;;
11267;SDS011;49397;47.474;9.416;2023-04-30T01:09:52;10.30;;;6.87;;
11267;SDS011;49397;47.474;9.416;2023-04-30T01:12:19;7.87;;;6.47;;
11267;SDS011;49397;47.474;9.416;2023-04-30T01:17:20;8.03;;;6.37;;
11267;SDS011;49397;47.474;9.416;2023-04-30T01:19:47;7.53;;;6.37;;
11267;SDS011;49397;47.474;9.416;2023-04-30T01:22:19;7.90;;;6.50;;
11267;SDS011;49397;47.474;9.416;2023-04-30T01:25:06;7.80;;;6.47;;
11267;SDS011;49397;47.474;9.416;2023-04-30T01:30:16;7.67;;;6.37;;
11267;SDS011;49397;47.474;9.416;2023-04-30T01:32:42;8.73;;;6.73;;
11267;SDS011;49397;47.474;9.416;2023-04-30T01:35:07;7.07;;;6.33;;
11267;SDS011;49397;47.474;9.416;2023-04-30T01:47:56;9.63;;;6.60;;
11267;SDS011;49397;47.474;9.416;2023-04-30T01:53:12;8.37;;;6.93;;
11267;SDS011;49397;47.474;9.416;2023-04-30T01:55:46;9.03;;;6.73;;
11267;SDS011;49397;47.474;9.416;2023-04-30T01:58:14;9.07;;;7.13;;
11267;SDS011;49397;47.474;9.416;2023-04-30T02:00:39;8.30;;;6.03;;
11267;SDS011;49397;47.474;9.416;2023-04-30T02:03:05;8.17;;;7.17;;
11267;SDS011;49397;47.474;9.416;2023-04-30T02:05:30;11.30;;;7.20;;
11267;SDS011;49397;47.474;9.416;2023-04-30T02:07:55;7.00;;;6.20;;
11267;SDS011;49397;47.474;9.416;2023-04-30T02:10:22;7.80;;;6.17;;
11267;SDS011;49397;47.474;9.416;2023-04-30T02:12:48;8.30;;;6.90;;
11267;SDS011;49397;47.474;9.416;2023-04-30T02:15:13;8.13;;;6.63;;
11267;SDS011;49397;47.474;9.416;2023-04-30T02:17:39;8.27;;;6.90;;
11267;SDS011;49397;47.474;9.416;2023-04-30T02:20:05;7.07;;;6.37;;
11267;SDS011;49397;47.474;9.416;2023-04-30T02:22:31;6.67;;;5.87;;
11267;SDS011;49397;47.474;9.416;2023-04-30T02:24:56;9.00;;;6.97;;
11267;SDS011;49397;47.474;9.416;2023-04-30T02:27:22;8.20;;;6.20;;
11267;SDS011;49397;47.474;9.416;2023-04-30T02:29:48;7.63;;;6.60;;
11267;SDS011;49397;47.474;9.416;2023-04-30T02:32:13;8.00;;;6.87;;
11267;SDS011;49397;47.474;9.416;2023-04-30T02:34:39;7.57;;;6.00;;
11267;SDS011;49397;47.474;9.416;2023-04-30T02:37:04;7.73;;;5.73;;
11267;SDS011;49397;47.474;9.416;2023-04-30T02:39:30;7.83;;;6.00;;
11267;SDS011;49397;47.474;9.416;2023-04-30T02:41:55;8.77;;;7.00;;
11267;SDS011;49397;47.474;9.416;2023-04-30T02:44:20;7.53;;;6.30;;
11267;SDS011;49397;47.474;9.416;2023-04-30T02:46:46;8.97;;;6.60;;
11267;SDS011;49397;47.474;9.416;2023-04-30T02:49:11;10.60;;;7.50;;
11267;SDS011;49397;47.474;9.416;2023-04-30T02:51:36;8.27;;;6.80;;
11267;SDS011;49397;47.474;9.416;2023-04-30T02:54:02;7.67;;;6.87;;
11267;SDS011;49397;47.474;9.416;2023-04-30T02:56:27;7.87;;;6.73;;
11267;SDS011;49397;47.474;9.416;2023-04-30T02:58:53;9.50;;;6.73;;
11267;SDS011;49397;47.474;9.416;2023-04-30T03:01:18;6.33;;;5.73;;
11267;SDS011;49397;47.474;9.416;2023-04-30T03:03:44;7.77;;;6.83;;
11267;SDS011;49397;47.474;9.416;2023-04-30T03:06:09;9.37;;;7.10;;
11267;SDS011;49397;47.474;9.416;2023-04-30T03:08:34;9.27;;;6.97;;
11267;SDS011;49397;47.474;9.416;2023-04-30T03:11:00;7.93;;;6.73;;
11267;SDS011;49397;47.474;9.416;2023-04-30T03:13:25;8.67;;;6.97;;
11267;SDS011;49397;47.474;9.416;2023-04-30T03:15:57;9.63;;;7.23;;
11267;SDS011;49397;47.474;9.416;2023-04-30T03:18:23;8.23;;;6.27;;
11267;SDS011;49397;47.474;9.416;2023-04-30T03:20:48;7.53;;;6.37;;
11267;SDS011;49397;47.474;9.416;2023-04-30T03:23:14;9.90;;;7.47;;
11267;SDS011;49397;47.474;9.416;2023-04-30T03:25:39;10.07;;;6.90;;
11267;SDS011;49397;47.474;9.416;2023-04-30T03:28:04;9.90;;;7.17;;
11267;SDS011;49397;47.474;9.416;2023-04-30T03:30:30;9.20;;;7.20;;
11267;SDS011;49397;47.474;9.416;2023-04-30T03:32:55;8.10;;;6.63;;
11267;SDS011;49397;47.474;9.416;2023-04-30T03:35:21;7.77;;;6.53;;
11267;SDS011;49397;47.474;9.416;2023-04-30T03:37:46;9.73;;;7.50;;
11267;SDS011;49397;47.474;9.416;2023-04-30T03:40:11;7.80;;;6.97;;
11267;SDS011;49397;47.474;9.416;2023-04-30T03:42:37;9.70;;;7.43;;
11267;SDS011;49397;47.474;9.416;2023-04-30T03:45:02;9.30;;;7.07;;
11267;SDS011;49397;47.474;9.416;2023-04-30T03:47:28;9.93;;;7.97;;
11267;SDS011;49397;47.474;9.416;2023-04-30T03:49:53;9.17;;;7.67;;
11267;SDS011;49397;47.474;9.416;2023-04-30T03:52:19;10.00;;;7.33;;
11267;SDS011;49397;47.474;9.416;2023-04-30T03:54:45;9.20;;;7.20;;
11267;SDS011;49397;47.474;9.416;2023-04-30T03:57:10;8.37;;;7.00;;
11267;SDS011;49397;47.474;9.416;2023-04-30T03:59:38;9.67;;;7.53;;
11267;SDS011;49397;47.474;9.416;2023-04-30T04:02:04;11.33;;;7.37;;
11267;SDS011;49397;47.474;9.416;2023-04-30T04:04:30;10.13;;;7.27;;
11267;SDS011;49397;47.474;9.416;2023-04-30T04:06:55;11.23;;;7.20;;
11267;SDS011;49397;47.474;9.416;2023-04-30T04:09:21;9.47;;;7.17;;
11267;SDS011;49397;47.474;9.416;2023-04-30T04:11:46;10.67;;;6.90;;
11267;SDS011;49397;47.474;9.416;2023-04-30T04:14:12;12.03;;;7.57;;
11267;SDS011;49397;47.474;9.416;2023-04-30T04:16:37;13.47;;;7.43;;
11267;SDS011;49397;47.474;9.416;2023-04-30T04:19:02;11.30;;;7.77;;
11267;SDS011;49397;47.474;9.416;2023-04-30T04:21:28;9.23;;;7.07;;
11267;SDS011;49397;47.474;9.416;2023-04-30T04:23:54;9.17;;;6.87;;
11267;SDS011;49397;47.474;9.416;2023-04-30T04:26:19;10.80;;;7.97;;
11267;SDS011;49397;47.474;9.416;2023-04-30T04:28:46;10.07;;;7.77;;
11267;SDS011;49397;47.474;9.416;2023-04-30T04:31:12;8.97;;;7.20;;
11267;SDS011;49397;47.474;9.416;2023-04-30T04:33:37;8.70;;;6.50;;
11267;SDS011;49397;47.474;9.416;2023-04-30T04:36:02;8.63;;;6.83;;
11267;SDS011;49397;47.474;9.416;2023-04-30T04:38:28;9.87;;;7.70;;
11267;SDS011;49397;47.474;9.416;2023-04-30T04:40:54;8.57;;;7.20;;
11267;SDS011;49397;47.474;9.416;2023-04-30T04:43:19;9.23;;;6.80;;
11267;SDS011;49397;47.474;9.416;2023-04-30T04:45:45;10.03;;;6.77;;
11267;SDS011;49397;47.474;9.416;2023-04-30T04:48:12;8.77;;;7.27;;
11267;SDS011;49397;47.474;9.416;2023-04-30T04:50:37;7.93;;;6.50;;
11267;SDS011;49397;47.474;9.416;2023-04-30T04:53:02;10.83;;;7.30;;
11267;SDS011;49397;47.474;9.416;2023-04-30T04:55:27;9.73;;;7.17;;
11267;SDS011;49397;47.474;9.416;2023-04-30T04:57:53;9.07;;;7.17;;
11267;SDS011;49397;47.474;9.416;2023-04-30T05:00:18;10.53;;;7.10;;
11267;SDS011;49397;47.474;9.416;2023-04-30T05:02:46;9.40;;;7.30;;
11267;SDS011;49397;47.474;9.416;2023-04-30T05:05:11;10.20;;;7.47;;
11267;SDS011;49397;47.474;9.416;2023-04-30T05:07:37;12.10;;;7.33;;
11267;SDS011;49397;47.474;9.416;2023-04-30T05:10:02;11.30;;;7.47;;
11267;SDS011;49397;47.474;9.416;2023-04-30T05:12:27;10.70;;;7.30;;
11267;SDS011;49397;47.474;9.416;2023-04-30T05:14:53;8.60;;;6.40;;
11267;SDS011;49397;47.474;9.416;2023-04-30T05:17:18;10.27;;;7.10;;
11267;SDS011;49397;47.474;9.416;2023-04-30T05:19:43;8.73;;;7.10;;
11267;SDS011;49397;47.474;9.416;2023-04-30T05:22:11;9.57;;;7.77;;
11267;SDS011;49397;47.474;9.416;2023-04-30T05:24:37;7.37;;;6.30;;
11267;SDS011;49397;47.474;9.416;2023-04-30T05:27:02;9.27;;;6.90;;
11267;SDS011;49397;47.474;9.416;2023-04-30T05:29:29;8.40;;;6.57;;
11267;SDS011;49397;47.474;9.416;2023-04-30T05:31:55;8.37;;;6.43;;
11267;SDS011;49397;47.474;9.416;2023-04-30T05:34:21;9.90;;;7.53;;
11267;SDS011;49397;47.474;9.416;2023-04-30T05:36:46;9.47;;;7.03;;
11267;SDS011;49397;47.474;9.416;2023-04-30T05:39:11;7.60;;;6.80;;
11267;SDS011;49397;47.474;9.416;2023-04-30T05:41:37;9.33;;;7.07;;
11267;SDS011;49397;47.474;9.416;2023-04-30T05:44:02;8.40;;;6.93;;
11267;SDS011;49397;47.474;9.416;2023-04-30T05:46:29;8.03;;;7.20;;
11267;SDS011;49397;47.474;9.416;2023-04-30T05:48:54;8.27;;;6.70;;
11267;SDS011;49397;47.474;9.416;2023-04-30T05:51:19;9.97;;;7.33;;
11267;SDS011;49397;47.474;9.416;2023-04-30T05:53:45;9.80;;;7.50;;
11267;SDS011;49397;47.474;9.416;2023-04-30T05:56:10;11.73;;;8.67;;
11267;SDS011;49397;47.474;9.416;2023-04-30T05:58:37;8.67;;;7.53;;
11267;SDS011;49397;47.474;9.416;2023-04-30T06:01:02;11.23;;;8.30;;
11267;SDS011;49397;47.474;9.416;2023-04-30T06:03:28;9.43;;;7.20;;
11267;SDS011;49397;47.474;9.416;2023-04-30T06:05:53;9.30;;;7.43;;
11267;SDS011;49397;47.474;9.416;2023-04-30T06:08:19;11.13;;;7.97;;
11267;SDS011;49397;47.474;9.416;2023-04-30T06:10:44;9.03;;;7.27;;
11267;SDS011;49397;47.474;9.416;2023-04-30T06:13:09;10.10;;;7.80;;
11267;SDS011;49397;47.474;9.416;2023-04-30T06:15:35;9.60;;;7.73;;
11267;SDS011;49397;47.474;9.416;2023-04-30T06:18:00;8.90;;;7.87;;
11267;SDS011;49397;47.474;9.416;2023-04-30T06:20:26;15.50;;;8.33;;
11267;SDS011;49397;47.474;9.416;2023-04-30T06:22:51;11.27;;;7.80;;
11267;SDS011;49397;47.474;9.416;2023-04-30T06:25:17;9.90;;;7.77;;
11267;SDS011;49397;47.474;9.416;2023-04-30T06:27:42;11.00;;;8.37;;
11267;SDS011;49397;47.474;9.416;2023-04-30T06:30:08;10.83;;;8.33;;
11267;SDS011;49397;47.474;9.416;2023-04-30T06:32:33;11.37;;;7.70;;
11267;SDS011;49397;47.474;9.416;2023-04-30T06:34:59;9.73;;;7.73;;
11267;SDS011;49397;47.474;9.416;2023-04-30T06:37:24;10.63;;;8.67;;
11267;SDS011;49397;47.474;9.416;2023-04-30T06:39:49;10.60;;;8.40;;
11267;SDS011;49397;47.474;9.416;2023-04-30T06:42:15;10.77;;;8.13;;
11267;SDS011;49397;47.474;9.416;2023-04-30T06:44:41;10.77;;;8.10;;
11267;SDS011;49397;47.474;9.416;2023-04-30T06:47:06;11.80;;;8.43;;
11267;SDS011;49397;47.474;9.416;2023-04-30T06:49:31;10.40;;;9.10;;
11267;SDS011;49397;47.474;9.416;2023-04-30T06:51:57;9.23;;;8.33;;
11267;SDS011;49397;47.474;9.416;2023-04-30T06:54:23;11.97;;;9.23;;
11267;SDS011;49397;47.474;9.416;2023-04-30T06:56:50;11.83;;;8.93;;
11267;SDS011;49397;47.474;9.416;2023-04-30T06:59:15;10.30;;;8.43;;
11267;SDS011;49397;47.474;9.416;2023-04-30T07:01:41;8.63;;;7.73;;
11267;SDS011;49397;47.474;9.416;2023-04-30T07:04:07;9.77;;;8.40;;
11267;SDS011;49397;47.474;9.416;2023-04-30T07:06:32;10.63;;;8.23;;
11267;SDS011;49397;47.474;9.416;2023-04-30T07:08:58;13.33;;;9.10;;
11267;SDS011;49397;47.474;9.416;2023-04-30T07:11:23;9.63;;;8.50;;
11267;SDS011;49397;47.474;9.416;2023-04-30T07:13:48;10.30;;;9.00;;
11267;SDS011;49397;47.474;9.416;2023-04-30T07:16:14;10.07;;;8.60;;
11267;SDS011;49397;47.474;9.416;2023-04-30T07:18:41;9.90;;;8.53;;
11267;SDS011;49397;47.474;9.416;2023-04-30T07:21:06;9.83;;;8.10;;
11267;SDS011;49397;47.474;9.416;2023-04-30T07:23:32;11.03;;;8.70;;
11267;SDS011;49397;47.474;9.416;2023-04-30T07:25:58;8.03;;;7.20;;
11267;SDS011;49397;47.474;9.416;2023-04-30T07:28:23;9.00;;;8.03;;
11267;SDS011;49397;47.474;9.416;2023-04-30T07:30:48;9.13;;;7.97;;
11267;SDS011;49397;47.474;9.416;2023-04-30T07:33:14;11.00;;;9.40;;
11267;SDS011;49397;47.474;9.416;2023-04-30T07:35:39;10.00;;;8.17;;
11267;SDS011;49397;47.474;9.416;2023-04-30T07:38:05;9.27;;;7.77;;
11267;SDS011;49397;47.474;9.416;2023-04-30T07:40:30;7.97;;;7.17;;
11267;SDS011;49397;47.474;9.416;2023-04-30T07:42:56;8.90;;;7.37;;
11267;SDS011;49397;47.474;9.416;2023-04-30T07:45:21;13.57;;;8.00;;
11267;SDS011;49397;47.474;9.416;2023-04-30T07:47:46;8.67;;;7.43;;
11267;SDS011;49397;47.474;9.416;2023-04-30T07:50:12;9.10;;;7.23;;
11267;SDS011;49397;47.474;9.416;2023-04-30T07:52:39;8.70;;;6.40;;
11267;SDS011;49397;47.474;9.416;2023-04-30T07:55:05;8.17;;;7.33;;
11267;SDS011;49397;47.474;9.416;2023-04-30T07:57:30;7.87;;;6.97;;
11267;SDS011;49397;47.474;9.416;2023-04-30T07:59:55;10.87;;;6.97;;
11267;SDS011;49397;47.474;9.416;2023-04-30T08:02:21;8.00;;;6.40;;
11267;SDS011;49397;47.474;9.416;2023-04-30T08:04:46;7.17;;;6.07;;
11267;SDS011;49397;47.474;9.416;2023-04-30T08:07:12;6.30;;;5.70;;
11267;SDS011;49397;47.474;9.416;2023-04-30T08:09:39;6.63;;;5.93;;
11267;SDS011;49397;47.474;9.416;2023-04-30T08:12:05;6.73;;;5.90;;
11267;SDS011;49397;47.474;9.416;2023-04-30T08:14:31;6.77;;;5.90;;
11267;SDS011;49397;47.474;9.416;2023-04-30T08:16:56;6.87;;;6.03;;
11267;SDS011;49397;47.474;9.416;2023-04-30T08:19:23;7.50;;;6.40;;
11267;SDS011;49397;47.474;9.416;2023-04-30T08:21:48;12.50;;;7.27;;
11267;SDS011;49397;47.474;9.416;2023-04-30T08:24:14;8.93;;;6.30;;
11267;SDS011;49397;47.474;9.416;2023-04-30T08:26:39;9.07;;;7.20;;
11267;SDS011;49397;47.474;9.416;2023-04-30T08:29:04;6.70;;;6.10;;
11267;SDS011;49397;47.474;9.416;2023-04-30T08:31:32;6.60;;;5.87;;
11267;SDS011;49397;47.474;9.416;2023-04-30T08:33:58;6.37;;;5.73;;
11267;SDS011;49397;47.474;9.416;2023-04-30T08:36:23;8.43;;;6.07;;
11267;SDS011;49397;47.474;9.416;2023-04-30T08:38:48;6.07;;;5.47;;
11267;SDS011;49397;47.474;9.416;2023-04-30T08:41:14;6.80;;;6.10;;
11267;SDS011;49397;47.474;9.416;2023-04-30T08:43:42;7.03;;;5.73;;
11267;SDS011;49397;47.474;9.416;2023-04-30T08:46:10;7.33;;;6.20;;
11267;SDS011;49397;47.474;9.416;2023-04-30T08:48:35;6.40;;;5.40;;
11267;SDS011;49397;47.474;9.416;2023-04-30T08:51:01;5.67;;;5.07;;
11267;SDS011;49397;47.474;9.416;2023-04-30T08:53:28;9.67;;;5.30;;
11267;SDS011;49397;47.474;9.416;2023-04-30T08:55:53;5.23;;;4.70;;
11267;SDS011;49397;47.474;9.416;2023-04-30T08:58:18;5.67;;;5.17;;
11267;SDS011;49397;47.474;9.416;2023-04-30T09:00:44;5.27;;;4.67;;
11267;SDS011;49397;47.474;9.416;2023-04-30T09:03:09;5.10;;;4.60;;
11267;SDS011;49397;47.474;9.416;2023-04-30T09:05:35;4.83;;;4.33;;
11267;SDS011;49397;47.474;9.416;2023-04-30T09:08:01;6.03;;;4.43;;
11267;SDS011;49397;47.474;9.416;2023-04-30T09:10:26;4.70;;;4.30;;
11267;SDS011;49397;47.474;9.416;2023-04-30T09:13:05;4.50;;;4.10;;
11267;SDS011;49397;47.474;9.416;2023-04-30T09:15:31;5.77;;;5.17;;
11267;SDS011;49397;47.474;9.416;2023-04-30T09:18:09;5.40;;;4.90;;
11267;SDS011;49397;47.474;9.416;2023-04-30T09:20:36;5.10;;;4.60;;
11267;SDS011;49397;47.474;9.416;2023-04-30T09:23:08;5.13;;;4.63;;
11267;SDS011;49397;47.474;9.416;2023-04-30T09:25:38;4.43;;;4.03;;
11267;SDS011;49397;47.474;9.416;2023-04-30T09:28:10;5.13;;;4.67;;
11267;SDS011;49397;47.474;9.416;2023-04-30T09:30:36;4.40;;;4.00;;
11267;SDS011;49397;47.474;9.416;2023-04-30T09:33:02;4.97;;;4.50;;
11267;SDS011;49397;47.474;9.416;2023-04-30T09:35:31;5.30;;;4.80;;
11267;SDS011;49397;47.474;9.416;2023-04-30T09:38:00;4.53;;;4.13;;
11267;SDS011;49397;47.474;9.416;2023-04-30T09:40:39;3.70;;;3.40;;
11267;SDS011;49397;47.474;9.416;2023-04-30T09:43:05;4.63;;;4.17;;
11267;SDS011;49397;47.474;9.416;2023-04-30T09:45:41;4.70;;;4.30;;
11267;SDS011;49397;47.474;9.416;2023-04-30T09:48:09;6.07;;;4.50;;
11267;SDS011;49397;47.474;9.416;2023-04-30T09:50:38;4.67;;;4.27;;
11267;SDS011;49397;47.474;9.416;2023-04-30T09:53:07;4.33;;;3.93;;
11267;SDS011;49397;47.474;9.416;2023-04-30T09:55:36;5.27;;;4.77;;
11267;SDS011;49397;47.474;9.416;2023-04-30T09:58:05;5.00;;;4.50;;
11267;SDS011;49397;47.474;9.416;2023-04-30T10:00:32;5.10;;;3.57;;
11267;SDS011;49397;47.474;9.416;2023-04-30T10:02:58;3.50;;;3.20;;
11267;SDS011;49397;47.474;9.416;2023-04-30T10:05:24;4.30;;;3.90;;
11267;SDS011;49397;47.474;9.416;2023-04-30T10:07:51;4.27;;;3.97;;
11267;SDS011;49397;47.474;9.416;2023-04-30T10:10:17;4.37;;;3.50;;
11267;SDS011;49397;47.474;9.416;2023-04-30T10:12:47;3.53;;;3.20;;
11267;SDS011;49397;47.474;9.416;2023-04-30T10:15:16;4.63;;;4.10;;
11267;SDS011;49397;47.474;9.416;2023-04-30T10:17:43;3.87;;;3.57;;
11267;SDS011;49397;47.474;9.416;2023-04-30T10:20:11;3.73;;;3.43;;
11267;SDS011;49397;47.474;9.416;2023-04-30T10:22:37;3.63;;;3.33;;
11267;SDS011;49397;47.474;9.416;2023-04-30T10:25:02;3.20;;;2.90;;
11267;SDS011;49397;47.474;9.416;2023-04-30T10:27:28;4.30;;;3.83;;
11267;SDS011;49397;47.474;9.416;2023-04-30T10:29:53;3.93;;;3.63;;
11267;SDS011;49397;47.474;9.416;2023-04-30T10:32:19;3.43;;;3.13;;
11267;SDS011;49397;47.474;9.416;2023-04-30T10:37:45;3.00;;;2.80;;
11267;SDS011;49397;47.474;9.416;2023-04-30T10:40:11;3.10;;;2.90;;
11267;SDS011;49397;47.474;9.416;2023-04-30T10:42:44;3.50;;;3.20;;
11267;SDS011;49397;47.474;9.416;2023-04-30T10:45:09;3.40;;;3.10;;
11267;SDS011;49397;47.474;9.416;2023-04-30T10:47:35;4.10;;;3.70;;
11267;SDS011;49397;47.474;9.416;2023-04-30T10:50:01;3.77;;;3.07;;
11267;SDS011;49397;47.474;9.416;2023-04-30T10:52:27;4.03;;;3.73;;
11267;SDS011;49397;47.474;9.416;2023-04-30T10:54:53;3.40;;;3.20;;
11267;SDS011;49397;47.474;9.416;2023-04-30T10:57:18;3.70;;;3.40;;
11267;SDS011;49397;47.474;9.416;2023-04-30T10:59:51;3.23;;;3.03;;
11267;SDS011;49397;47.474;9.416;2023-04-30T11:02:17;3.20;;;3.00;;
11267;SDS011;49397;47.474;9.416;2023-04-30T11:05:07;3.10;;;2.90;;
11267;SDS011;49397;47.474;9.416;2023-04-30T11:07:32;3.30;;;3.10;;
11267;SDS011;49397;47.474;9.416;2023-04-30T11:09:59;3.27;;;3.07;;
11267;SDS011;49397;47.474;9.416;2023-04-30T11:12:25;3.77;;;2.83;;
11267;SDS011;49397;47.474;9.416;2023-04-30T11:15:03;3.03;;;2.83;;
11267;SDS011;49397;47.474;9.416;2023-04-30T11:17:29;3.57;;;3.37;;
11267;SDS011;49397;47.474;9.416;2023-04-30T11:19:58;4.73;;;3.10;;
11267;SDS011;49397;47.474;9.416;2023-04-30T11:22:25;3.10;;;2.90;;
11267;SDS011;49397;47.474;9.416;2023-04-30T11:24:59;3.70;;;3.40;;
11267;SDS011;49397;47.474;9.416;2023-04-30T11:27:30;3.77;;;3.10;;
11267;SDS011;49397;47.474;9.416;2023-04-30T11:29:56;3.50;;;3.20;;
11267;SDS011;49397;47.474;9.416;2023-04-30T11:32:23;3.73;;;3.20;;
11267;SDS011;49397;47.474;9.416;2023-04-30T11:34:48;3.90;;;3.40;;
11267;SDS011;49397;47.474;9.416;2023-04-30T11:37:20;3.37;;;3.07;;
11267;SDS011;49397;47.474;9.416;2023-04-30T11:39:46;3.70;;;3.40;;
11267;SDS011;49397;47.474;9.416;2023-04-30T11:42:16;3.30;;;3.00;;
11267;SDS011;49397;47.474;9.416;2023-04-30T11:44:42;3.33;;;2.87;;
11267;SDS011;49397;47.474;9.416;2023-04-30T11:47:07;3.17;;;2.90;;
11267;SDS011;49397;47.474;9.416;2023-04-30T11:49:33;3.43;;;3.13;;
11267;SDS011;49397;47.474;9.416;2023-04-30T11:51:58;3.70;;;2.90;;
11267;SDS011;49397;47.474;9.416;2023-04-30T11:54:23;2.97;;;2.77;;
11267;SDS011;49397;47.474;9.416;2023-04-30T11:56:49;3.40;;;2.90;;
11267;SDS011;49397;47.474;9.416;2023-04-30T11:59:15;2.90;;;2.70;;
11267;SDS011;49397;47.474;9.416;2023-04-30T12:01:41;3.03;;;2.83;;
11267;SDS011;49397;47.474;9.416;2023-04-30T12:04:06;2.90;;;2.70;;
11267;SDS011;49397;47.474;9.416;2023-04-30T12:06:33;3.03;;;2.83;;
11267;SDS011;49397;47.474;9.416;2023-04-30T12:08:59;3.00;;;2.63;;
11267;SDS011;49397;47.474;9.416;2023-04-30T12:11:33;3.70;;;3.40;;
11267;SDS011;49397;47.474;9.416;2023-04-30T12:14:05;3.13;;;2.83;;
11267;SDS011;49397;47.474;9.416;2023-04-30T12:16:44;3.17;;;2.90;;
11267;SDS011;49397;47.474;9.416;2023-04-30T12:19:10;3.10;;;2.90;;
11267;SDS011;49397;47.474;9.416;2023-04-30T12:21:35;3.57;;;2.47;;
11267;SDS011;49397;47.474;9.416;2023-04-30T12:24:01;2.67;;;2.47;;
11267;SDS011;49397;47.474;9.416;2023-04-30T12:26:33;2.60;;;2.40;;
11267;SDS011;49397;47.474;9.416;2023-04-30T12:29:01;2.93;;;2.73;;
11267;SDS011;49397;47.474;9.416;2023-04-30T12:31:27;3.20;;;3.00;;
11267;SDS011;49397;47.474;9.416;2023-04-30T12:33:55;3.13;;;2.83;;
11267;SDS011;49397;47.474;9.416;2023-04-30T12:36:21;3.17;;;2.90;;
11267;SDS011;49397;47.474;9.416;2023-04-30T12:38:46;2.97;;;2.77;;
11267;SDS011;49397;47.474;9.416;2023-04-30T12:41:11;3.27;;;3.03;;
11267;SDS011;49397;47.474;9.416;2023-04-30T12:43:41;16.37;;;13.60;;
11267;SDS011;49397;47.474;9.416;2023-04-30T12:46:06;5.23;;;4.13;;
11267;SDS011;49397;47.474;9.416;2023-04-30T12:48:42;3.27;;;3.03;;
11267;SDS011;49397;47.474;9.416;2023-04-30T12:51:07;4.03;;;3.33;;
11267;SDS011;49397;47.474;9.416;2023-04-30T12:53:34;2.93;;;2.73;;
11267;SDS011;49397;47.474;9.416;2023-04-30T12:56:09;3.33;;;3.03;;
11267;SDS011;49397;47.474;9.416;2023-04-30T12:58:36;5.07;;;3.97;;
11267;SDS011;49397;47.474;9.416;2023-04-30T13:01:01;10.87;;;7.77;;
11267;SDS011;49397;47.474;9.416;2023-04-30T13:03:27;3.73;;;3.43;;
11267;SDS011;49397;47.474;9.416;2023-04-30T13:05:52;3.43;;;3.13;;
11267;SDS011;49397;47.474;9.416;2023-04-30T13:08:18;3.13;;;2.73;;
11267;SDS011;49397;47.474;9.416;2023-04-30T13:10:45;3.50;;;3.20;;
11267;SDS011;49397;47.474;9.416;2023-04-30T13:13:11;3.00;;;2.80;;
11267;SDS011;49397;47.474;9.416;2023-04-30T13:15:36;3.13;;;2.93;;
11267;SDS011;49397;47.474;9.416;2023-04-30T13:18:02;2.90;;;2.70;;
11267;SDS011;49397;47.474;9.416;2023-04-30T13:20:27;2.73;;;2.53;;
11267;SDS011;49397;47.474;9.416;2023-04-30T13:22:53;4.53;;;2.60;;
11267;SDS011;49397;47.474;9.416;2023-04-30T13:25:18;3.13;;;2.93;;
11267;SDS011;49397;47.474;9.416;2023-04-30T13:27:44;3.27;;;3.07;;
11267;SDS011;49397;47.474;9.416;2023-04-30T13:30:09;3.97;;;3.57;;
11267;SDS011;49397;47.474;9.416;2023-04-30T13:32:35;4.03;;;3.73;;
11267;SDS011;49397;47.474;9.416;2023-04-30T13:35:04;3.20;;;2.93;;
11267;SDS011;49397;47.474;9.416;2023-04-30T13:37:30;2.83;;;2.63;;
11267;SDS011;49397;47.474;9.416;2023-04-30T13:39:55;3.50;;;2.90;;
11267;SDS011;49397;47.474;9.416;2023-04-30T13:42:21;6.30;;;5.20;;
11267;SDS011;49397;47.474;9.416;2023-04-30T13:44:47;2.73;;;2.53;;
11267;SDS011;49397;47.474;9.416;2023-04-30T13:47:14;2.60;;;2.50;;
11267;SDS011;49397;47.474;9.416;2023-04-30T13:49:40;2.70;;;2.50;;
11267;SDS011;49397;47.474;9.416;2023-04-30T13:52:05;4.40;;;4.00;;
11267;SDS011;49397;47.474;9.416;2023-04-30T13:54:30;3.73;;;3.43;;
11267;SDS011;49397;47.474;9.416;2023-04-30T13:56:57;3.03;;;2.83;;
11267;SDS011;49397;47.474;9.416;2023-04-30T13:59:23;3.57;;;3.27;;
11267;SDS011;49397;47.474;9.416;2023-04-30T14:01:49;3.07;;;2.83;;
11267;SDS011;49397;47.474;9.416;2023-04-30T14:04:14;3.13;;;2.83;;
11267;SDS011;49397;47.474;9.416;2023-04-30T14:06:40;3.40;;;2.60;;
11267;SDS011;49397;47.474;9.416;2023-04-30T14:09:05;2.73;;;2.53;;
11267;SDS011;49397;47.474;9.416;2023-04-30T14:11:31;3.20;;;2.90;;
11267;SDS011;49397;47.474;9.416;2023-04-30T14:13:56;3.20;;;3.00;;
11267;SDS011;49397;47.474;9.416;2023-04-30T14:16:22;3.23;;;3.03;;
11267;SDS011;49397;47.474;9.416;2023-04-30T14:18:47;3.13;;;2.87;;
11267;SDS011;49397;47.474;9.416;2023-04-30T14:21:13;2.80;;;2.60;;
11267;SDS011;49397;47.474;9.416;2023-04-30T14:23:38;3.33;;;2.90;;
11267;SDS011;49397;47.474;9.416;2023-04-30T14:26:04;3.37;;;3.10;;
11267;SDS011;49397;47.474;9.416;2023-04-30T14:28:30;4.43;;;3.30;;
11267;SDS011;49397;47.474;9.416;2023-04-30T14:30:55;5.47;;;3.43;;
11267;SDS011;49397;47.474;9.416;2023-04-30T14:33:21;3.80;;;3.13;;
11267;SDS011;49397;47.474;9.416;2023-04-30T14:35:46;3.57;;;3.30;;
11267;SDS011;49397;47.474;9.416;2023-04-30T14:38:12;3.13;;;2.93;;
11267;SDS011;49397;47.474;9.416;2023-04-30T14:40:37;2.70;;;2.50;;
11267;SDS011;49397;47.474;9.416;2023-04-30T14:43:03;3.27;;;2.97;;
11267;SDS011;49397;47.474;9.416;2023-04-30T14:45:28;3.77;;;3.00;;
11267;SDS011;49397;47.474;9.416;2023-04-30T14:47:53;3.73;;;3.40;;
11267;SDS011;49397;47.474;9.416;2023-04-30T14:50:19;3.77;;;3.33;;
11267;SDS011;49397;47.474;9.416;2023-04-30T14:52:44;3.13;;;2.93;;
11267;SDS011;49397;47.474;9.416;2023-04-30T14:55:11;3.10;;;2.83;;
11267;SDS011;49397;47.474;9.416;2023-04-30T14:57:36;3.73;;;3.43;;
11267;SDS011;49397;47.474;9.416;2023-04-30T15:00:01;3.40;;;3.20;;
11267;SDS011;49397;47.474;9.416;2023-04-30T15:02:28;7.73;;;3.97;;